Time;durP1;ratioP1;P1;durP2;ratioP2;P2;SDS_P1;SDS_P2;PMS_P1;PMS_P2;Temp;Humidity;BMP_temperature;BMP_pressure;BME280_temperature;BME280_humidity;BME280_pressure;Samples;Min_cycle;Max_cycle;Signal;HPM_P1;HPM_P2
2023/08/10 00:00:42;;;;;;;6.53;2.50;;;;;;;12.16;100.00;102101.09;5289750;28;20039;-71
2023/08/10 00:03:12;;;;;;;7.50;3.03;;;;;;;12.20;100.00;102105.19;5289896;28;20023;-71
2023/08/10 00:05:43;;;;;;;5.00;2.67;;;;;;;12.19;100.00;102098.09;5289000;28;20035;-71
2023/08/10 00:08:14;;;;;;;5.13;2.63;;;;;;;12.18;100.00;102108.00;5280192;28;20023;-71
2023/08/10 00:10:49;;;;;;;3.03;2.05;;;;;;;12.12;100.00;102116.66;5290790;28;20030;-71
2023/08/10 00:13:19;;;;;;;4.72;2.63;;;;;;;12.09;100.00;102108.03;5291370;28;20149;-71
2023/08/10 00:15:50;;;;;;;5.68;2.40;;;;;;;12.05;100.00;102110.19;5290249;28;20023;-71
2023/08/10 00:18:20;;;;;;;5.05;2.17;;;;;;;12.08;100.00;102115.25;5291720;28;20539;-71
2023/08/10 00:20:51;;;;;;;6.05;2.50;;;;;;;12.05;100.00;102104.81;5290071;28;20023;-71
2023/08/10 00:23:21;;;;;;;8.25;2.42;;;;;;;12.02;100.00;102104.25;5291618;28;20028;-72
2023/08/10 00:25:52;;;;;;;6.57;2.53;;;;;;;12.31;100.00;102106.84;5292850;28;20023;-71
2023/08/10 00:28:22;;;;;;;6.03;2.63;;;;;;;12.36;100.00;102105.41;5277389;28;20091;-71
2023/08/10 00:30:53;;;;;;;4.13;2.25;;;;;;;12.36;100.00;102107.25;5288716;28;20030;-71
2023/08/10 00:33:24;;;;;;;6.75;2.60;;;;;;;12.30;100.00;102106.00;5288114;28;20366;-71
2023/08/10 00:35:54;;;;;;;5.13;2.53;;;;;;;12.25;100.00;102107.41;5288710;28;20107;-71
2023/08/10 00:38:26;;;;;;;5.45;2.50;;;;;;;12.16;100.00;102099.25;5289138;28;20173;-71
2023/08/10 00:40:56;;;;;;;6.38;2.55;;;;;;;12.14;100.00;102095.00;5288529;28;20023;-71
2023/08/10 00:43:27;;;;;;;6.32;2.50;;;;;;;12.14;100.00;102103.91;5288355;28;20024;-71
2023/08/10 00:45:59;;;;;;;4.85;2.05;;;;;;;12.18;100.00;102093.72;5287088;28;20450;-71
2023/08/10 00:48:30;;;;;;;3.45;2.13;;;;;;;12.18;100.00;102104.47;5274792;28;20511;-71
2023/08/10 00:51:01;;;;;;;5.90;2.88;;;;;;;12.16;100.00;102095.72;5287528;28;20019;-72
2023/08/10 00:53:32;;;;;;;4.88;2.58;;;;;;;12.14;100.00;102106.59;5287600;28;20374;-71
2023/08/10 00:56:04;;;;;;;5.90;2.40;;;;;;;12.09;100.00;102108.03;5286758;28;20027;-71
2023/08/10 00:58:36;;;;;;;4.82;2.70;;;;;;;12.04;100.00;102105.78;5287795;28;20051;-72
2023/08/10 01:01:07;;;;;;;5.13;2.40;;;;;;;12.04;100.00;102105.78;5287432;28;20026;-71
2023/08/10 01:03:37;;;;;;;5.55;2.20;;;;;;;12.04;100.00;102108.47;5257915;28;20024;-71
2023/08/10 01:06:37;;;;;;;4.13;2.30;;;;;;;12.05;100.00;102112.00;5285511;28;20058;-71
2023/08/10 01:09:34;;;;;;;3.67;1.60;;;;;;;12.00;100.00;102119.66;5287348;28;20015;-71
2023/08/10 01:12:20;;;;;;;4.28;2.17;;;;;;;11.95;100.00;102109.38;5273158;28;20455;-72
2023/08/10 01:14:56;;;;;;;6.05;2.20;;;;;;;11.91;100.00;102105.25;5286884;28;20086;-71
2023/08/10 01:17:34;;;;;;;3.50;2.17;;;;;;;11.89;100.00;102096.47;5287731;28;20042;-71
2023/08/10 01:20:08;;;;;;;4.25;1.80;;;;;;;11.92;100.00;102104.25;5287156;28;20115;-71
2023/08/10 01:22:48;;;;;;;4.50;2.10;;;;;;;11.93;100.00;102103.25;5268824;28;20027;-71
2023/08/10 01:25:20;;;;;;;4.63;2.75;;;;;;;11.90;100.00;102103.56;5286406;28;20028;-71
2023/08/10 01:27:51;;;;;;;9.43;2.80;;;;;;;11.84;100.00;102096.06;5275323;28;20028;-71
2023/08/10 01:30:22;;;;;;;3.75;2.50;;;;;;;11.82;100.00;102092.66;5270836;28;20096;-72
2023/08/10 01:32:53;;;;;;;4.82;2.20;;;;;;;11.80;100.00;102097.31;5287116;28;20027;-71
2023/08/10 01:35:24;;;;;;;3.95;2.22;;;;;;;11.78;100.00;102094.75;5286644;28;20026;-71
2023/08/10 01:37:55;;;;;;;5.72;2.20;;;;;;;11.78;100.00;102091.22;5286468;28;20027;-71
2023/08/10 01:40:25;;;;;;;5.72;2.30;;;;;;;11.77;100.00;102095.75;5286887;28;20030;-71
2023/08/10 01:42:56;;;;;;;4.53;2.70;;;;;;;11.80;100.00;102090.09;5286847;28;20027;-72
2023/08/10 01:45:27;;;;;;;4.45;2.42;;;;;;;11.80;100.00;102089.25;5268377;28;20027;-72
2023/08/10 01:48:03;;;;;;;3.50;2.15;;;;;;;11.82;100.00;102081.91;5286177;28;20026;-71
2023/08/10 01:50:40;;;;;;;4.43;2.90;;;;;;;11.78;100.00;102084.00;5286383;28;20023;-71
2023/08/10 01:53:14;;;;;;;;;;;;;;;11.74;100.00;102089.81;5267884;28;20028;-70
2023/08/10 01:55:46;;;;;;;4.93;2.42;;;;;;;11.72;100.00;102091.81;5264903;28;20185;-71
2023/08/10 01:58:16;;;;;;;6.47;2.67;;;;;;;11.76;100.00;102094.06;5266740;28;20126;-70
2023/08/10 02:00:47;;;;;;;4.28;2.25;;;;;;;11.71;100.00;102092.81;5266182;28;20099;-70
2023/08/10 02:03:18;;;;;;;2.70;1.90;;;;;;;11.65;100.00;102094.22;5266349;28;20034;-71
2023/08/10 02:05:49;;;;;;;6.38;2.67;;;;;;;11.61;100.00;102093.66;5266181;28;20064;-71
2023/08/10 02:08:19;;;;;;;6.07;2.60;;;;;;;11.55;100.00;102101.44;5276387;28;20023;-71
2023/08/10 02:10:50;;;;;;;4.72;2.28;;;;;;;11.52;100.00;102105.25;5285538;28;20098;-71
2023/08/10 02:13:21;;;;;;;4.75;3.17;;;;;;;11.47;100.00;102099.47;5286122;28;20023;-70
2023/08/10 02:15:51;;;;;;;3.92;2.45;;;;;;;11.48;100.00;102095.78;5285578;28;20028;-71
2023/08/10 02:18:22;;;;;;;5.50;2.67;;;;;;;11.47;100.00;102095.94;5286241;28;20464;-71
2023/08/10 02:20:54;;;;;;;10.65;3.25;;;;;;;11.41;100.00;102090.13;5285170;28;20023;-71
2023/08/10 02:23:24;;;;;;;9.18;3.13;;;;;;;11.40;100.00;102090.28;5285652;28;20024;-71
2023/08/10 02:25:55;;;;;;;8.43;3.10;;;;;;;11.43;100.00;102095.34;5285246;28;20027;-71
2023/08/10 02:28:26;;;;;;;6.75;2.95;;;;;;;11.40;100.00;102084.91;5286119;28;20028;-72
2023/08/10 02:30:57;;;;;;;3.38;2.22;;;;;;;11.44;100.00;102094.34;5285949;28;20496;-71
2023/08/10 02:33:27;;;;;;;4.28;2.63;;;;;;;11.41;100.00;102089.28;5285881;28;20485;-71
2023/08/10 02:35:58;;;;;;;6.00;2.88;;;;;;;11.39;100.00;102099.31;5285258;28;20049;-71
2023/08/10 02:38:28;;;;;;;7.38;3.08;;;;;;;11.37;100.00;102096.78;5272654;28;20346;-72
2023/08/10 02:40:59;;;;;;;7.20;2.85;;;;;;;11.62;100.00;102103.41;5285927;28;20276;-72
2023/08/10 02:43:30;;;;;;;5.55;3.17;;;;;;;11.65;100.00;102103.13;5272405;28;20027;-71
2023/08/10 02:46:00;;;;;;;5.03;2.85;;;;;;;11.63;100.00;102102.41;5267191;28;20027;-71
2023/08/10 02:48:31;;;;;;;4.93;2.42;;;;;;;11.59;100.00;102101.00;5277709;28;20330;-71
2023/08/10 02:51:01;;;;;;;3.05;2.20;;;;;;;11.56;100.00;102100.47;5278633;28;20469;-71
2023/08/10 02:53:32;;;;;;;7.35;2.90;;;;;;;11.54;100.00;102097.88;5273997;28;20615;-71
2023/08/10 02:56:02;;;;;;;6.93;3.03;;;;;;;11.48;100.00;102100.31;5282311;28;20040;-71
2023/08/10 02:58:33;;;;;;;5.10;3.30;;;;;;;11.47;100.00;102106.69;5275303;28;20020;-71
2023/08/10 03:01:19;;;;;;;7.45;3.20;;;;;;;11.44;100.00;102113.16;5285217;28;20031;-72
2023/08/10 03:03:49;;;;;;;6.07;2.65;;;;;;;11.40;100.00;102104.56;5285650;28;20027;-72
2023/08/10 03:06:20;;;;;;;6.25;2.75;;;;;;;11.37;100.00;102099.47;5278117;28;20501;-71
2023/08/10 03:08:50;;;;;;;6.35;3.20;;;;;;;11.34;100.00;102101.56;5266075;28;20039;-72
2023/08/10 03:11:21;;;;;;;6.53;3.15;;;;;;;11.32;100.00;102109.78;5276522;28;20020;-71
2023/08/10 03:13:51;;;;;;;5.40;2.90;;;;;;;11.31;100.00;102096.50;5262620;28;20412;-71
2023/08/10 03:16:22;;;;;;;3.97;2.83;;;;;;;11.31;100.00;102099.19;5289562;28;20393;-71
2023/08/10 03:18:52;;;;;;;6.53;2.78;;;;;;;11.26;100.00;102096.91;5285594;28;20028;-71
2023/08/10 03:21:23;;;;;;;3.45;2.30;;;;;;;11.27;100.00;102101.28;5267792;28;20027;-71
2023/08/10 03:23:54;;;;;;;4.38;2.10;;;;;;;11.25;100.00;102100.59;5285151;28;20032;-71
2023/08/10 03:26:24;;;;;;;7.10;2.70;;;;;;;11.21;100.00;102103.69;5285176;28;20024;-70
2023/08/10 03:28:54;;;;;;;4.25;2.70;;;;;;;11.19;100.00;102111.03;5285179;28;20032;-71
2023/08/10 03:31:25;;;;;;;8.13;3.78;;;;;;;11.20;100.00;102120.81;5287782;28;20020;-71
2023/08/10 03:33:56;;;;;;;5.65;3.30;;;;;;;11.22;100.00;102116.13;5289601;28;20028;-71
2023/08/10 03:36:26;;;;;;;7.32;3.58;;;;;;;11.22;100.00;102121.50;5289331;28;20023;-71
2023/08/10 03:38:57;;;;;;;7.47;3.63;;;;;;;11.24;100.00;102119.50;5289047;28;20035;-71
2023/08/10 03:41:27;;;;;;;4.53;2.22;;;;;;;11.22;100.00;102122.34;5289149;28;20023;-71
2023/08/10 03:43:58;;;;;;;6.35;3.13;;;;;;;11.21;100.00;102133.25;5289586;28;20031;-71
2023/08/10 03:46:28;;;;;;;4.88;3.22;;;;;;;11.22;100.00;102133.09;5270519;28;20020;-71
2023/08/10 03:48:59;;;;;;;7.13;3.72;;;;;;;11.19;100.00;102127.13;5288848;28;20026;-71
2023/08/10 03:51:29;;;;;;;6.13;3.28;;;;;;;11.17;100.00;102127.28;5288591;28;20020;-71
2023/08/10 03:54:00;;;;;;;3.67;2.65;;;;;;;11.17;100.00;102135.34;5289065;28;20031;-71
2023/08/10 03:56:31;;;;;;;3.80;2.58;;;;;;;11.14;100.00;102133.81;5288415;28;20023;-70
2023/08/10 03:59:02;;;;;;;9.27;3.35;;;;;;;11.08;100.00;102131.66;5288631;28;20089;-71
2023/08/10 04:01:33;;;;;;;6.80;3.78;;;;;;;11.05;100.00;102126.56;5289485;28;20190;-71
2023/08/10 04:04:04;;;;;;;6.38;2.97;;;;;;;11.06;100.00;102136.31;5291427;28;20059;-71
2023/08/10 04:06:34;;;;;;;7.25;3.70;;;;;;;11.04;100.00;102138.28;5292718;28;20036;-71
2023/08/10 04:09:05;;;;;;;5.60;3.58;;;;;;;11.05;100.00;102131.94;5294811;28;20016;-70
2023/08/10 04:11:35;;;;;;;5.85;3.60;;;;;;;11.00;100.00;102136.88;5280440;28;20357;-72
2023/08/10 04:14:06;;;;;;;5.78;3.45;;;;;;;10.99;100.00;102145.06;5290467;28;20034;-71
2023/08/10 04:16:36;;;;;;;6.60;4.00;;;;;;;10.96;100.00;102140.81;5288498;28;20012;-70
2023/08/10 04:19:07;;;;;;;11.00;4.30;;;;;;;10.89;100.00;102145.91;5307398;28;20098;-71
2023/08/10 04:21:39;;;;;;;7.55;3.65;;;;;;;10.96;100.00;102145.34;5288778;28;20085;-71
2023/08/10 04:24:10;;;;;;;10.00;4.10;;;;;;;10.94;100.00;102145.47;5267673;28;20020;-71
2023/08/10 04:26:41;;;;;;;8.95;3.90;;;;;;;10.92;100.00;102150.13;5267468;28;20070;-71
2023/08/10 04:29:11;;;;;;;7.90;3.15;;;;;;;11.02;100.00;102150.16;5288635;28;20016;-71
2023/08/10 04:31:42;;;;;;;7.68;2.95;;;;;;;11.03;100.00;102144.63;5274079;28;20057;-71
2023/08/10 04:34:13;;;;;;;5.90;2.60;;;;;;;11.01;100.00;102149.31;5288023;28;20023;-71
2023/08/10 04:36:43;;;;;;;7.30;3.55;;;;;;;11.09;100.00;102148.59;5287362;28;20028;-71
2023/08/10 04:39:14;;;;;;;4.18;2.78;;;;;;;11.08;100.00;102147.75;5287450;28;20031;-71
2023/08/10 04:41:44;;;;;;;5.22;2.60;;;;;;;11.12;100.00;102153.72;5287697;28;20063;-71
2023/08/10 04:44:15;;;;;;;5.25;2.30;;;;;;;11.08;100.00;102152.28;5287459;28;20099;-71
2023/08/10 04:46:46;;;;;;;4.45;2.70;;;;;;;11.05;100.00;102152.59;5273639;28;20027;-71
2023/08/10 04:49:16;;;;;;;4.57;2.88;;;;;;;11.02;100.00;102153.69;5287493;28;20121;-70
2023/08/10 04:51:46;;;;;;;5.93;3.15;;;;;;;11.09;100.00;102162.03;5287304;28;20020;-71
2023/08/10 04:54:17;;;;;;;5.60;3.53;;;;;;;11.11;100.00;102157.41;5287463;28;20038;-71
2023/08/10 04:56:48;;;;;;;7.10;3.47;;;;;;;11.12;100.00;102159.94;5277655;28;20035;-70
2023/08/10 04:59:18;;;;;;;8.32;3.55;;;;;;;11.13;100.00;102161.63;5282749;28;20126;-71
2023/08/10 05:01:49;;;;;;;8.50;3.30;;;;;;;11.17;100.00;102162.22;5287171;28;20507;-71
2023/08/10 05:04:19;;;;;;;8.50;3.83;;;;;;;11.23;100.00;102163.50;5273284;28;20024;-71
2023/08/10 05:06:51;;;;;;;8.27;3.60;;;;;;;11.24;100.00;102167.88;5287034;28;20111;-71
2023/08/10 05:09:22;;;;;;;10.40;3.33;;;;;;;11.26;100.00;102169.44;5280926;28;20035;-71
2023/08/10 05:11:52;;;;;;;8.90;4.65;;;;;;;11.26;100.00;102163.22;5279564;28;20042;-71
2023/08/10 05:14:23;;;;;;;6.30;3.78;;;;;;;11.27;100.00;102154.16;5286959;28;20427;-72
2023/08/10 05:16:53;;;;;;;7.90;3.95;;;;;;;11.29;100.00;102157.56;5279643;28;20054;-71
2023/08/10 05:19:24;;;;;;;7.82;3.70;;;;;;;11.31;100.00;102148.38;5286869;28;20026;-71
2023/08/10 05:21:54;;;;;;;7.20;3.88;;;;;;;11.37;100.00;102149.66;5273054;28;20016;-71
2023/08/10 05:24:25;;;;;;;10.30;4.10;;;;;;;11.46;100.00;102154.19;5286970;28;20489;-71
2023/08/10 05:26:55;;;;;;;8.00;4.20;;;;;;;11.59;100.00;102159.28;5285734;28;20031;-71
2023/08/10 05:29:26;;;;;;;10.98;4.30;;;;;;;11.66;100.00;102158.59;5286786;28;20024;-71
2023/08/10 05:31:57;;;;;;;7.63;3.75;;;;;;;11.73;100.00;102163.41;5268619;28;20020;-72
2023/08/10 05:34:27;;;;;;;10.30;3.92;;;;;;;11.76;100.00;102152.38;5277954;28;20024;-71
2023/08/10 05:36:58;;;;;;;10.82;4.47;;;;;;;11.83;100.00;102162.44;5281066;28;20028;-71
2023/08/10 05:39:29;;;;;;;9.65;4.55;;;;;;;11.96;100.00;102170.22;5278170;28;20027;-71
2023/08/10 05:41:59;;;;;;;19.13;5.80;;;;;;;12.14;100.00;102165.78;5286718;28;20016;-70
2023/08/10 05:44:30;;;;;;;12.13;5.47;;;;;;;12.31;100.00;102163.38;5286793;28;20076;-71
2023/08/10 05:47:00;;;;;;;11.30;4.53;;;;;;;12.42;100.00;102165.88;5286308;28;20015;-71
2023/08/10 05:49:30;;;;;;;10.95;5.20;;;;;;;12.57;100.00;102168.94;5284867;28;20111;-70
2023/08/10 05:52:01;;;;;;;15.75;4.70;;;;;;;12.74;100.00;102157.38;5264825;28;20054;-71
2023/08/10 05:54:32;;;;;;;11.15;4.80;;;;;;;12.89;100.00;102158.59;5267246;28;20035;-70
2023/08/10 05:57:02;;;;;;;5.82;3.75;;;;;;;13.10;100.00;102162.88;5285834;28;20023;-71
2023/08/10 05:59:33;;;;;;;12.07;3.78;;;;;;;13.37;100.00;102164.72;5282102;28;20050;-70
2023/08/10 06:02:03;;;;;;;8.52;4.05;;;;;;;13.97;100.00;102168.50;5281115;28;20023;-70
2023/08/10 06:04:34;;;;;;;9.05;3.70;;;;;;;14.87;100.00;102174.47;5285675;28;20024;-71
2023/08/10 06:07:04;;;;;;;11.00;3.72;;;;;;;15.62;100.00;102168.28;5285057;28;20039;-71
2023/08/10 06:09:35;;;;;;;12.52;3.15;;;;;;;16.31;100.00;102154.25;5272857;28;20066;-71
2023/08/10 06:12:06;;;;;;;6.68;2.47;;;;;;;16.98;100.00;102153.03;5271794;28;20475;-71
2023/08/10 06:14:37;;;;;;;7.63;2.88;;;;;;;17.59;100.00;102152.13;5286572;28;20027;-72
2023/08/10 06:17:07;;;;;;;5.80;2.45;;;;;;;18.16;100.00;102147.28;5284861;28;20035;-72
2023/08/10 06:19:38;;;;;;;5.70;2.67;;;;;;;18.59;100.00;102151.06;5286022;28;20024;-71
2023/08/10 06:22:08;;;;;;;8.25;2.55;;;;;;;18.93;100.00;102150.50;5267579;28;20028;-72
2023/08/10 06:24:39;;;;;;;6.30;2.60;;;;;;;19.21;100.00;102149.78;5285589;28;20057;-72
2023/08/10 06:27:09;;;;;;;5.68;2.90;;;;;;;19.73;100.00;102149.53;5266948;28;20030;-72
2023/08/10 06:29:40;;;;;;;5.72;2.13;;;;;;;20.11;100.00;102151.94;5272324;28;20032;-72
2023/08/10 06:32:10;;;;;;;5.95;2.30;;;;;;;20.33;100.00;102156.31;5266179;28;20016;-72
2023/08/10 06:34:41;;;;;;;10.07;2.45;;;;;;;20.50;100.00;102145.13;5265104;28;20020;-72
2023/08/10 06:37:14;;;;;;;10.05;2.22;;;;;;;20.77;100.00;102148.81;5265183;28;20097;-72
2023/08/10 06:39:46;;;;;;;6.40;2.42;;;;;;;20.96;100.00;102145.34;5265907;28;20028;-72
2023/08/10 06:42:17;;;;;;;5.40;2.17;;;;;;;21.12;100.00;102150.44;5265124;28;20103;-72
2023/08/10 06:44:48;;;;;;;6.25;1.90;;;;;;;21.25;100.00;102146.94;5265868;28;20027;-72
2023/08/10 06:47:19;;;;;;;4.70;2.15;;;;;;;21.28;100.00;102143.78;5264820;28;20393;-72
2023/08/10 06:49:49;;;;;;;5.25;1.80;;;;;;;21.29;100.00;102136.44;5265723;28;20107;-72
2023/08/10 06:52:19;;;;;;;4.55;2.03;;;;;;;21.43;100.00;102136.28;5265055;28;20221;-72
2023/08/10 06:54:52;;;;;;;3.03;1.80;;;;;;;21.53;100.00;102129.56;5277902;28;20034;-72
2023/08/10 06:57:23;;;;;;;6.13;1.88;;;;;;;21.53;100.00;102133.16;5265148;28;20028;-72
2023/08/10 06:59:53;;;;;;;2.97;1.77;;;;;;;21.58;100.00;102140.72;5265090;28;20024;-72
2023/08/10 07:02:24;;;;;;;5.25;1.58;;;;;;;21.75;100.00;102143.91;5265422;28;20023;-72
2023/08/10 07:04:54;;;;;;;5.50;1.60;;;;;;;21.94;100.00;102141.19;5264407;28;20021;-72
2023/08/10 07:07:24;;;;;;;6.90;2.10;;;;;;;22.07;100.00;102139.47;5268914;28;20020;-72
2023/08/10 07:09:55;;;;;;;4.70;1.60;;;;;;;21.82;100.00;102137.38;5279021;28;20047;-72
2023/08/10 07:12:25;;;;;;;5.97;2.03;;;;;;;21.82;100.00;102134.66;5275727;28;20020;-72
2023/08/10 07:14:56;;;;;;;6.03;2.30;;;;;;;22.08;100.00;102138.41;5289394;28;20477;-72
2023/08/10 07:17:26;;;;;;;3.70;1.40;;;;;;;22.23;100.00;102137.16;5274858;28;20035;-72
2023/08/10 07:19:57;;;;;;;2.17;1.40;;;;;;;22.41;100.00;102131.06;5271501;28;20038;-72
2023/08/10 07:22:28;;;;;;;4.35;1.67;;;;;;;22.32;100.00;102137.78;5289503;28;20088;-72
2023/08/10 07:25:03;;;;;;;2.65;1.30;;;;;;;22.27;100.00;102137.59;5288955;28;20023;-72
2023/08/10 07:27:35;;;;;;;3.90;1.55;;;;;;;22.53;100.00;102141.31;5289113;28;20035;-72
2023/08/10 07:30:06;;;;;;;4.43;1.58;;;;;;;22.40;100.00;102134.84;5288988;28;20026;-72
2023/08/10 07:32:37;;;;;;;3.38;1.25;;;;;;;22.25;100.00;102136.97;5289528;28;20027;-72
2023/08/10 07:35:09;;;;;;;4.55;1.50;;;;;;;22.60;100.00;102140.28;5271301;28;20020;-72
2023/08/10 07:37:40;;;;;;;3.85;1.45;;;;;;;22.70;100.00;102137.91;5268587;28;20141;-72
2023/08/10 07:40:11;;;;;;;4.75;1.73;;;;;;;22.53;100.00;102144.06;5269380;28;20028;-72
2023/08/10 07:42:41;;;;;;;3.13;1.45;;;;;;;22.71;100.00;102138.75;5269192;28;20032;-73
2023/08/10 07:45:12;;;;;;;2.38;1.30;;;;;;;22.90;100.00;102143.34;5269285;28;20397;-72
2023/08/10 07:47:42;;;;;;;5.38;1.50;;;;;;;22.71;100.00;102144.22;5269072;28;20032;-73
2023/08/10 07:50:14;;;;;;;4.43;1.40;;;;;;;22.94;100.00;102141.88;5268551;28;20020;-72
2023/08/10 07:52:44;;;;;;;5.22;1.33;;;;;;;22.84;100.00;102138.72;5269039;28;20042;-72
2023/08/10 07:55:15;;;;;;;4.20;1.35;;;;;;;23.07;100.00;102143.69;5268456;28;20389;-72
2023/08/10 07:57:46;;;;;;;4.40;1.38;;;;;;;23.33;100.00;102153.66;5272595;28;20448;-72
2023/08/10 08:00:17;;;;;;;3.08;1.08;;;;;;;23.31;100.00;102144.00;5287887;28;20020;-72
2023/08/10 08:02:49;;;;;;;5.97;1.15;;;;;;;23.38;100.00;102144.78;5281998;28;20496;-72
2023/08/10 08:05:20;;;;;;;3.38;1.20;;;;;;;23.49;100.00;102136.72;5267889;28;20488;-72
2023/08/10 08:07:50;;;;;;;9.02;1.95;;;;;;;23.26;100.00;102137.28;5267719;28;20016;-72
2023/08/10 08:10:21;;;;;;;2.72;1.20;;;;;;;23.26;100.00;102131.78;5272353;28;20027;-72
2023/08/10 08:12:53;;;;;;;5.43;1.42;;;;;;;23.58;100.00;102130.94;5288412;28;20032;-72
2023/08/10 08:15:24;;;;;;;5.47;1.45;;;;;;;23.88;100.00;102126.53;5276953;28;20058;-73
2023/08/10 08:18:32;;;;;;;4.30;1.17;;;;;;;24.07;100.00;102143.88;5275674;28;20444;-72
2023/08/10 08:21:02;;;;;;;4.38;1.10;;;;;;;23.93;100.00;102128.59;5275959;28;20357;-73
2023/08/10 08:23:33;;;;;;;3.53;1.35;;;;;;;23.53;100.00;102124.22;5288566;28;20038;-73
2023/08/10 08:26:04;;;;;;;2.15;1.23;;;;;;;23.64;100.00;102121.88;5287415;28;20057;-73
2023/08/10 08:28:35;;;;;;;2.33;1.30;;;;;;;23.65;100.00;102121.66;5288373;28;20366;-73
2023/08/10 08:31:06;;;;;;;5.43;1.52;;;;;;;24.08;100.00;102123.59;5288749;28;20027;-73
2023/08/10 08:33:38;;;;;;;3.40;1.30;;;;;;;24.19;100.00;102122.03;5288349;28;20019;-73
2023/08/10 08:36:09;;;;;;;2.15;1.27;;;;;;;24.35;100.00;102121.47;5287814;28;20028;-73
2023/08/10 08:38:40;;;;;;;4.53;1.40;;;;;;;24.56;100.00;102109.22;5287589;28;20076;-73
2023/08/10 08:41:10;;;;;;;5.50;1.25;;;;;;;24.82;100.00;102112.72;5287868;28;20027;-73
2023/08/10 08:43:43;;;;;;;3.53;1.20;;;;;;;25.16;100.00;102108.50;5288108;28;20024;-73
2023/08/10 08:46:16;;;;;;;2.15;1.20;;;;;;;25.48;100.00;102101.66;5273682;28;20024;-73
2023/08/10 08:48:47;;;;;;;6.18;1.30;;;;;;;25.14;100.00;102102.38;5288332;28;20024;-72
2023/08/10 08:51:17;;;;;;;3.03;1.25;;;;;;;25.46;100.00;102112.03;5287305;28;20038;-73
2023/08/10 08:53:51;;;;;;;3.50;1.20;;;;;;;25.41;100.00;102103.66;5288187;28;20410;-73
2023/08/10 08:56:22;;;;;;;2.85;1.00;;;;;;;25.33;100.00;102109.50;5287137;28;20024;-73
2023/08/10 08:58:53;;;;;;;5.35;1.30;;;;;;;25.37;100.00;102104.38;5287588;28;20499;-73
2023/08/10 09:01:25;;;;;;;3.65;0.88;;;;;;;25.34;100.00;102104.81;5287373;28;20015;-73
2023/08/10 09:03:55;;;;;;;5.57;1.30;;;;;;;25.51;100.00;102105.84;5287340;28;20028;-73
2023/08/10 09:06:26;;;;;;;3.25;1.10;;;;;;;25.61;100.00;102108.03;5279739;28;20081;-73
2023/08/10 09:08:56;;;;;;;3.38;1.20;;;;;;;26.08;100.00;102109.75;5282289;28;20034;-73
2023/08/10 09:11:27;;;;;;;3.70;1.05;;;;;;;26.18;100.00;102111.06;5259206;28;20048;-73
2023/08/10 09:14:06;;;;;;;3.40;1.30;;;;;;;26.26;100.00;102107.97;5283414;28;20072;-73
2023/08/10 09:16:37;;;;;;;3.17;1.00;;;;;;;26.68;100.00;102103.13;5286782;28;20031;-73
2023/08/10 09:19:12;;;;;;;1.73;1.05;;;;;;;26.52;100.00;102101.97;5273746;28;20059;-73
2023/08/10 09:21:45;;;;;;;4.45;1.42;;;;;;;26.54;100.00;102110.81;5287299;28;20362;-74
2023/08/10 09:24:15;;;;;;;3.38;1.35;;;;;;;26.80;100.00;102097.56;5287201;28;20546;-73
2023/08/10 09:26:46;;;;;;;2.33;1.30;;;;;;;26.83;100.00;102100.69;5286137;28;20039;-73
2023/08/10 09:29:28;;;;;;;5.43;1.15;;;;;;;26.77;100.00;102104.41;5287109;28;20033;-73
2023/08/10 09:31:58;;;;;;;1.25;1.10;;;;;;;26.32;100.00;102110.56;5286741;28;20054;-74
2023/08/10 09:34:29;;;;;;;1.85;1.25;;;;;;;26.29;100.00;102107.47;5287147;28;20015;-73
2023/08/10 09:37:01;;;;;;;2.00;1.38;;;;;;;25.96;100.00;102106.19;5265541;28;20055;-73
2023/08/10 09:39:32;;;;;;;2.75;1.17;;;;;;;26.03;100.00;102098.63;5279289;28;20023;-73
2023/08/10 09:42:03;;;;;;;5.15;1.20;;;;;;;25.85;100.00;102092.41;5273867;28;20099;-73
2023/08/10 09:44:45;;;;;;;7.00;1.52;;;;;;;26.25;100.00;102096.09;5286701;28;20337;-73
2023/08/10 09:47:17;;;;;;;2.20;1.00;;;;;;;26.22;100.00;102091.09;5286131;28;20107;-73
2023/08/10 09:50:06;;;;;;;1.73;1.15;;;;;;;25.87;100.00;102099.34;5286315;28;20158;-73
2023/08/10 09:52:37;;;;;;;5.82;1.52;;;;;;;25.99;100.00;102096.59;5286764;28;20019;-73
2023/08/10 09:55:09;;;;;;;2.45;1.33;;;;;;;26.26;100.00;102102.47;5278023;28;20055;-74
2023/08/10 09:57:43;;;;;;;4.18;1.60;;;;;;;26.36;100.00;102097.19;5281224;28;20023;-73
2023/08/10 10:00:18;;;;;;;35.42;20.33;;;;;;;26.50;100.00;102093.09;5275647;28;20509;-73
2023/08/10 10:02:49;;;;;;;;;;;;;;;26.66;100.00;102090.66;5279488;28;20030;-73
2023/08/10 10:05:21;;;;;;;3.03;1.60;;;;;;;26.97;100.00;102094.88;5265347;28;20334;-74
2023/08/10 10:07:51;;;;;;;3.45;1.50;;;;;;;27.11;100.00;102090.78;5278576;28;20043;-74
2023/08/10 10:10:22;;;;;;;4.63;1.10;;;;;;;27.16;100.00;102079.88;5278805;28;20020;-73
2023/08/10 10:12:53;;;;;;;5.05;1.40;;;;;;;26.96;100.00;102074.78;5286364;28;20028;-74
2023/08/10 10:15:24;;;;;;;3.20;1.75;;;;;;;27.15;100.00;102074.59;5286118;28;20011;-74
2023/08/10 10:17:55;;;;;;;4.82;1.40;;;;;;;27.25;100.00;102072.00;5285929;28;20341;-73
2023/08/10 10:20:26;;;;;;;4.43;1.90;;;;;;;27.45;100.00;102077.03;5272529;28;20092;-74
2023/08/10 10:22:56;;;;;;;4.68;2.55;;;;;;;27.44;100.00;102072.63;5274954;28;20377;-74
2023/08/10 10:25:27;;;;;;;2.90;1.58;;;;;;;27.26;100.00;102079.19;5282915;28;20400;-74
2023/08/10 10:27:57;;;;;;;2.00;1.33;;;;;;;27.24;100.00;102073.94;5273826;28;20101;-74
2023/08/10 10:30:28;;;;;;;4.28;1.50;;;;;;;27.08;100.00;102078.34;5284613;28;20084;-74
2023/08/10 10:32:58;;;;;;;4.07;1.55;;;;;;;26.91;100.00;102071.94;5273005;28;20077;-73
2023/08/10 10:35:32;;;;;;;4.40;1.20;;;;;;;27.06;100.00;102074.97;5264405;28;20031;-74
2023/08/10 10:38:04;;;;;;;4.43;1.63;;;;;;;27.02;100.00;102084.81;5278034;28;20020;-74
2023/08/10 10:40:34;;;;;;;2.10;1.30;;;;;;;26.96;100.00;102073.91;5273607;28;20034;-73
2023/08/10 10:43:07;;;;;;;4.35;1.25;;;;;;;26.82;100.00;102074.22;5285821;28;20023;-74
2023/08/10 10:45:41;;;;;;;3.03;1.45;;;;;;;26.61;100.00;102074.91;5274874;28;20099;-74
2023/08/10 10:48:13;;;;;;;2.17;1.40;;;;;;;26.65;100.00;102080.75;5283322;28;20026;-74
2023/08/10 10:50:43;;;;;;;5.15;1.35;;;;;;;26.56;100.00;102075.63;5273117;28;20440;-73
2023/08/10 10:53:16;;;;;;;6.70;3.08;;;;;;;26.58;100.00;102073.47;5278416;28;20114;-74
2023/08/10 10:55:48;;;;;;;2.55;1.50;;;;;;;26.37;100.00;102074.09;5278161;28;20468;-74
2023/08/10 10:58:19;;;;;;;5.22;1.67;;;;;;;26.25;100.00;102070.50;5278314;28;20060;-74
2023/08/10 11:00:51;;;;;;;3.47;1.80;;;;;;;26.46;100.00;102069.09;5266225;28;20066;-74
2023/08/10 11:03:21;;;;;;;2.78;1.50;;;;;;;26.70;100.00;102072.59;5285933;28;20072;-74
2023/08/10 11:05:52;;;;;;;3.90;1.80;;;;;;;26.72;100.00;102086.97;5282003;28;20107;-74
2023/08/10 11:08:22;;;;;;;4.90;1.60;;;;;;;26.70;100.00;102080.84;5264756;28;20170;-74
2023/08/10 11:10:55;;;;;;;5.40;1.98;;;;;;;26.70;100.00;102086.34;5282350;28;20108;-74
2023/08/10 11:13:27;;;;;;;4.88;1.60;;;;;;;26.59;100.00;102080.63;5285663;28;20390;-74
2023/08/10 11:15:59;;;;;;;4.32;1.67;;;;;;;26.53;100.00;102081.63;5283176;28;20019;-74
2023/08/10 11:18:31;;;;;;;4.32;1.85;;;;;;;26.37;100.00;102079.59;5278194;28;20106;-74
2023/08/10 11:21:06;;;;;;;4.93;1.65;;;;;;;26.35;100.00;102078.97;5272718;28;20500;-74
2023/08/10 11:23:38;;;;;;;3.03;1.80;;;;;;;26.62;100.00;102073.81;5272120;28;20024;-74
2023/08/10 11:26:11;;;;;;;3.83;2.05;;;;;;;26.75;100.00;102078.19;5267102;28;20024;-74
2023/08/10 11:28:42;;;;;;;7.07;1.92;;;;;;;26.73;100.00;102074.88;5285461;28;20023;-74
2023/08/10 11:31:14;;;;;;;6.75;2.53;;;;;;;26.80;100.00;102064.53;5285333;28;20028;-74
2023/08/10 11:33:44;;;;;;;5.45;1.80;;;;;;;26.94;100.00;102076.94;5279598;28;20032;-74
2023/08/10 11:36:15;;;;;;;4.97;1.98;;;;;;;26.93;100.00;102074.44;5278401;28;20027;-74